createdAt,value
2022-12-11T00:00:18.344Z,89.58
2022-12-11T00:03:21.204Z,89.56
2022-12-11T00:06:24.227Z,89.08
2022-12-11T00:09:27.042Z,88.59
2022-12-11T00:12:32.771Z,89.16
2022-12-11T00:15:38.039Z,88.70
2022-12-11T00:18:40.540Z,89.38
2022-12-11T00:21:43.828Z,88.74
2022-12-11T00:24:46.291Z,88.78
2022-12-11T00:27:49.010Z,88.70
2022-12-11T00:30:52.114Z,88.98
2022-12-11T00:33:54.747Z,88.20
2022-12-11T00:36:59.171Z,88.51
2022-12-11T00:40:02.168Z,88.51
2022-12-11T00:43:04.668Z,89.02
2022-12-11T00:46:07.641Z,88.97
2022-12-11T00:49:10.131Z,87.80
2022-12-11T00:52:13.038Z,88.53
2022-12-11T00:55:15.606Z,87.89
2022-12-11T00:58:18.600Z,88.21
2022-12-11T01:01:24.351Z,87.09
2022-12-11T01:04:27.935Z,88.01
2022-12-11T01:07:30.923Z,86.95
2022-12-11T01:10:35.238Z,87.25
2022-12-11T01:13:38.935Z,87.15
2022-12-11T01:16:41.611Z,87.16
2022-12-11T01:19:44.176Z,87.97
2022-12-11T01:22:47.010Z,87.63
2022-12-11T01:25:49.839Z,87.87
2022-12-11T01:28:52.901Z,87.43
2022-12-11T01:31:55.888Z,86.54
2022-12-11T01:34:58.667Z,86.53
2022-12-11T01:38:01.712Z,87.20
2022-12-11T01:41:04.867Z,87.64
2022-12-11T01:44:16.366Z,86.60
2022-12-11T01:47:19.473Z,87.80
2022-12-11T01:50:22.965Z,86.83
2022-12-11T01:53:37.166Z,87.41
2022-12-11T01:56:42.065Z,87.13
2022-12-11T01:59:46.881Z,87.08
2022-12-11T02:02:49.560Z,87.96
2022-12-11T02:05:52.635Z,87.22
2022-12-11T02:08:55.347Z,86.96
2022-12-11T02:12:08.081Z,88.00
2022-12-11T02:15:35.579Z,87.40
2022-12-11T02:19:21.490Z,88.25
2022-12-11T02:22:50.334Z,88.24
2022-12-11T02:26:20.203Z,88.08
2022-12-11T02:29:29.176Z,88.42
2022-12-11T02:32:43.175Z,88.42
2022-12-11T02:35:47.132Z,88.80
2022-12-11T02:38:52.471Z,88.48
2022-12-11T02:41:56.627Z,87.40
2022-12-11T02:45:01.851Z,88.29
2022-12-11T02:48:08.193Z,88.35
2022-12-11T02:51:14.306Z,88.50
2022-12-11T02:54:21.865Z,88.80
2022-12-11T02:57:43.272Z,88.24
2022-12-11T03:00:46.916Z,88.58
2022-12-11T03:03:49.908Z,88.41
2022-12-11T03:06:56.495Z,88.39
2022-12-11T03:10:00.125Z,88.81
2022-12-11T03:13:05.196Z,87.60
2022-12-11T03:16:34.047Z,88.04
2022-12-11T03:19:41.591Z,88.49
2022-12-11T03:22:50.396Z,88.04
2022-12-11T03:25:59.598Z,87.75
2022-12-11T03:29:17.101Z,87.20
2022-12-11T03:32:25.488Z,87.47
2022-12-11T03:35:49.703Z,87.28
2022-12-11T03:38:58.431Z,87.61
2022-12-11T03:42:09.727Z,87.76
2022-12-11T03:45:14.345Z,87.47
2022-12-11T03:48:19.203Z,88.87
2022-12-11T03:51:24.252Z,89.24
2022-12-11T03:54:27.801Z,88.99
2022-12-11T03:57:35.275Z,88.08
2022-12-11T04:00:38.529Z,88.41
2022-12-11T04:03:41.025Z,88.05
2022-12-11T04:06:44.013Z,88.33
2022-12-11T04:09:46.586Z,87.83
2022-12-11T04:12:49.475Z,88.71
2022-12-11T04:15:52.225Z,88.74
2022-12-11T04:19:13.543Z,89.24
2022-12-11T04:22:36.186Z,90.18
2022-12-11T04:25:38.887Z,89.97
2022-12-11T04:28:42.711Z,90.00
2022-12-11T04:31:46.326Z,90.06
2022-12-11T04:34:48.782Z,89.36
2022-12-11T04:37:53.018Z,88.83
2022-12-11T04:41:10.239Z,88.53
2022-12-11T04:44:13.196Z,89.72
2022-12-11T04:47:15.888Z,90.39
2022-12-11T04:50:18.739Z,90.18
2022-12-11T04:53:21.711Z,89.92
2022-12-11T04:56:24.747Z,90.19
2022-12-11T04:59:27.723Z,90.10
2022-12-11T05:02:30.815Z,90.38
2022-12-11T05:05:33.274Z,90.73
2022-12-11T05:08:37.790Z,90.04
2022-12-11T05:11:40.594Z,90.46
2022-12-11T05:14:43.430Z,90.16
2022-12-11T05:17:46.067Z,90.42
2022-12-11T05:20:57.295Z,90.28
2022-12-11T05:24:00.145Z,90.81
2022-12-11T05:27:03.015Z,90.47
2022-12-11T05:30:06.265Z,91.06
2022-12-11T05:33:09.238Z,91.00
2022-12-11T05:36:28.832Z,90.84
2022-12-11T05:39:31.919Z,91.08
2022-12-11T05:42:34.795Z,90.72
2022-12-11T05:45:37.832Z,90.08
2022-12-11T05:48:41.391Z,90.99
2022-12-11T05:51:44.373Z,90.61
2022-12-11T05:54:50.451Z,90.82
2022-12-11T05:57:53.452Z,90.21
2022-12-11T06:00:56.176Z,90.94
2022-12-11T06:04:00.077Z,91.26
2022-12-11T06:07:02.548Z,92.00
2022-12-11T06:10:05.778Z,91.58
2022-12-11T06:13:08.585Z,91.75
2022-12-11T06:16:11.692Z,92.19
2022-12-11T06:19:16.873Z,92.23
2022-12-11T06:22:19.939Z,92.66
2022-12-11T06:25:22.616Z,92.70
2022-12-11T06:28:25.291Z,92.72
2022-12-11T06:31:28.034Z,92.51
2022-12-11T06:34:30.995Z,92.80
2022-12-11T06:37:38.125Z,92.77
2022-12-11T06:40:41.939Z,92.94
2022-12-11T06:43:44.856Z,92.97
2022-12-11T06:46:47.759Z,93.17
2022-12-11T06:49:50.566Z,93.09
2022-12-11T06:52:53.215Z,93.29
2022-12-11T06:55:55.875Z,93.39
2022-12-11T06:59:02.824Z,93.30
2022-12-11T07:02:14.714Z,93.05
2022-12-11T07:05:17.659Z,93.33
2022-12-11T07:08:20.358Z,93.28
2022-12-11T07:11:23.943Z,92.93
2022-12-11T07:14:26.800Z,92.96
2022-12-11T07:17:30.308Z,93.17
2022-12-11T07:20:38.089Z,92.54
2022-12-11T07:23:41.853Z,92.63
2022-12-11T07:26:44.684Z,92.49
2022-12-11T07:29:47.567Z,91.76
2022-12-11T07:32:50.103Z,91.56
2022-12-11T07:35:53.256Z,91.77
2022-12-11T07:38:56.098Z,91.01
2022-12-11T07:41:59.181Z,90.65
2022-12-11T07:45:02.174Z,90.65
2022-12-11T07:48:05.576Z,90.57
2022-12-11T07:51:27.652Z,90.19
2022-12-11T07:54:30.443Z,89.54
2022-12-11T07:57:33.081Z,89.73
2022-12-11T08:00:36.068Z,89.58
2022-12-11T08:03:38.637Z,89.35
2022-12-11T08:06:42.663Z,89.10
2022-12-11T08:09:45.204Z,87.84
2022-12-11T08:12:48.045Z,87.96
2022-12-11T08:15:51.382Z,87.86
2022-12-11T08:18:54.068Z,86.93
2022-12-11T08:21:56.739Z,87.30
2022-12-11T08:24:59.757Z,86.28
2022-12-11T08:28:04.426Z,87.10
2022-12-11T08:31:09.824Z,86.33
2022-12-11T08:34:14.232Z,83.62
2022-12-11T08:37:17.210Z,80.59
2022-12-11T08:40:20.377Z,78.30
2022-12-11T08:43:23.195Z,81.12
2022-12-11T08:46:28.037Z,82.39
2022-12-11T08:49:34.378Z,83.83
2022-12-11T08:52:37.230Z,83.96
2022-12-11T08:55:39.838Z,82.05
2022-12-11T08:58:42.967Z,82.87
2022-12-11T09:01:46.133Z,82.08
2022-12-11T09:04:48.740Z,81.78
2022-12-11T09:07:51.697Z,81.65
2022-12-11T09:10:54.701Z,81.88
2022-12-11T09:14:02.122Z,83.92
2022-12-11T09:17:08.872Z,84.71
2022-12-11T09:20:11.826Z,85.15
2022-12-11T09:23:14.571Z,85.03
2022-12-11T09:26:20.442Z,85.82
2022-12-11T09:29:23.599Z,86.68
2022-12-11T09:32:26.699Z,85.12
2022-12-11T09:35:29.184Z,86.37
2022-12-11T09:38:33.643Z,87.61
2022-12-11T09:41:55.792Z,87.09
2022-12-11T09:45:03.128Z,87.42
2022-12-11T09:48:07.849Z,87.69
2022-12-11T09:51:19.768Z,87.62
2022-12-11T09:54:22.371Z,88.19
2022-12-11T09:58:02.254Z,87.67
2022-12-11T10:01:31.578Z,87.74
2022-12-11T10:04:52.729Z,88.05
2022-12-11T10:08:23.653Z,88.59
2022-12-11T10:11:41.474Z,87.25
2022-12-11T10:15:21.354Z,87.21
2022-12-11T10:18:26.378Z,87.23
2022-12-11T10:21:37.994Z,86.83
2022-12-11T10:28:16.764Z,86.88
2022-12-11T10:31:22.153Z,85.62
2022-12-11T10:34:36.490Z,86.38
2022-12-11T10:37:40.325Z,86.67
2022-12-11T10:40:50.530Z,86.33
2022-12-11T10:43:54.016Z,86.65
2022-12-11T10:47:07.301Z,87.03
2022-12-11T10:50:24.093Z,86.83
2022-12-11T10:53:29.331Z,87.13
2022-12-11T10:56:33.934Z,87.50
2022-12-11T10:59:48.124Z,86.12
2022-12-11T11:02:50.983Z,86.22
2022-12-11T11:06:22.446Z,85.22
2022-12-11T11:09:30.786Z,84.47
2022-12-11T11:12:39.775Z,85.01
2022-12-11T11:15:42.737Z,84.04
2022-12-11T11:18:54.608Z,84.31
2022-12-11T11:22:00.963Z,83.06
2022-12-11T11:25:05.216Z,82.73
2022-12-11T11:28:38.255Z,80.71
2022-12-11T11:31:42.419Z,81.55
2022-12-11T11:34:45.207Z,82.99
2022-12-11T11:38:09.943Z,80.55
2022-12-11T11:41:15.690Z,78.79
2022-12-11T11:44:41.191Z,78.02
2022-12-11T11:47:57.425Z,79.01
2022-12-11T11:51:12.922Z,78.64
2022-12-11T11:54:28.419Z,77.82
2022-12-11T11:57:47.847Z,78.03
2022-12-11T12:00:54.198Z,80.17
2022-12-11T12:03:57.615Z,78.17
2022-12-11T12:07:24.283Z,78.33
2022-12-11T12:10:38.556Z,77.80
2022-12-11T12:13:50.160Z,78.51
2022-12-11T12:17:14.432Z,78.97
2022-12-11T12:20:43.436Z,81.72
2022-12-11T12:24:18.008Z,80.34
2022-12-11T12:27:51.971Z,83.33
2022-12-11T12:31:00.736Z,83.33
2022-12-11T12:34:25.081Z,80.05
2022-12-11T12:37:27.733Z,77.12
2022-12-11T12:40:48.016Z,78.42
2022-12-11T12:44:02.431Z,78.66
2022-12-11T12:47:16.906Z,78.17
2022-12-11T12:50:25.849Z,79.11
2022-12-11T12:53:33.688Z,80.43
2022-12-11T12:56:37.671Z,82.98
2022-12-11T12:59:40.267Z,79.56
2022-12-11T13:02:51.509Z,81.43
2022-12-11T13:06:04.136Z,80.90
2022-12-11T13:09:15.166Z,81.96
2022-12-11T13:12:33.171Z,80.73
2022-12-11T13:15:43.063Z,79.86
2022-12-11T13:18:48.333Z,80.99
2022-12-11T13:22:15.042Z,81.68
2022-12-11T13:25:25.698Z,83.25
2022-12-11T13:28:33.575Z,84.43
2022-12-11T13:31:38.386Z,83.18
2022-12-11T13:34:44.656Z,83.82
2022-12-11T13:37:51.162Z,83.41
2022-12-11T13:40:55.729Z,83.60
2022-12-11T13:43:58.989Z,83.99
2022-12-11T13:47:03.899Z,84.79
2022-12-11T13:50:23.551Z,83.47
2022-12-11T13:53:26.524Z,83.66
2022-12-11T13:56:29.776Z,83.55
2022-12-11T13:59:35.856Z,84.08
2022-12-11T14:02:42.851Z,84.25
2022-12-11T14:05:45.822Z,84.00
2022-12-11T14:08:51.875Z,84.06
2022-12-11T14:11:57.335Z,83.66
2022-12-11T14:15:02.421Z,84.43
2022-12-11T14:18:05.758Z,84.38
2022-12-11T14:21:16.834Z,84.81
2022-12-11T14:24:19.495Z,84.86
2022-12-11T14:27:22.934Z,83.87
2022-12-11T14:30:31.675Z,84.71
2022-12-11T14:33:40.794Z,85.17
2022-12-11T14:36:46.346Z,84.49
2022-12-11T14:40:03.554Z,84.60
2022-12-11T14:43:21.196Z,83.63
2022-12-11T14:46:38.400Z,84.43
2022-12-11T14:49:54.007Z,84.51
2022-12-11T14:53:07.898Z,84.65
2022-12-11T14:56:17.867Z,83.72
2022-12-11T14:59:30.108Z,84.47
2022-12-11T15:02:37.156Z,83.53
2022-12-11T15:05:53.822Z,82.75
2022-12-11T15:08:56.670Z,84.53
2022-12-11T15:12:14.792Z,85.01
2022-12-11T15:15:18.458Z,85.42
2022-12-11T15:18:28.380Z,85.15
2022-12-11T15:21:38.206Z,86.54
2022-12-11T15:24:43.377Z,84.67
2022-12-11T15:27:49.772Z,85.25
2022-12-11T15:30:59.440Z,84.31
2022-12-11T15:34:02.705Z,85.74
2022-12-11T15:37:18.008Z,84.56
2022-12-11T15:40:21.794Z,85.74
2022-12-11T15:43:25.186Z,84.21
2022-12-11T15:46:27.927Z,84.26
2022-12-11T15:49:30.700Z,82.63
2022-12-11T15:52:34.655Z,84.99
2022-12-11T15:55:39.419Z,85.62
2022-12-11T15:58:44.670Z,85.07
2022-12-11T16:01:47.764Z,85.11
2022-12-11T16:04:50.787Z,83.54
2022-12-11T16:07:54.844Z,84.30
2022-12-11T16:10:58.155Z,83.51
2022-12-11T16:14:04.511Z,83.35
2022-12-11T16:17:09.598Z,83.76
2022-12-11T16:20:14.073Z,85.67
2022-12-11T16:23:17.574Z,85.45
2022-12-11T16:26:20.637Z,82.78
2022-12-11T16:29:23.479Z,83.93
2022-12-11T16:32:26.740Z,84.10
2022-12-11T16:35:29.940Z,84.33
2022-12-11T16:38:32.953Z,84.76
2022-12-11T16:41:36.575Z,84.06
2022-12-11T16:44:43.827Z,83.57
2022-12-11T16:47:47.428Z,85.38
2022-12-11T16:50:53.870Z,85.94
2022-12-11T16:53:56.459Z,85.46
2022-12-11T16:56:59.588Z,85.67
2022-12-11T17:00:02.169Z,84.88
2022-12-11T17:03:05.258Z,85.58
2022-12-11T17:06:10.193Z,82.24
2022-12-11T17:09:13.080Z,83.71
2022-12-11T17:12:15.979Z,84.48
2022-12-11T17:15:18.655Z,84.32
2022-12-11T17:18:21.780Z,84.28
2022-12-11T17:21:24.832Z,83.88
2022-12-11T17:24:27.521Z,84.21
2022-12-11T17:27:30.890Z,84.26
2022-12-11T17:30:33.680Z,84.34
2022-12-11T17:33:36.715Z,84.95
2022-12-11T17:36:39.441Z,84.19
2022-12-11T17:39:42.444Z,83.64
2022-12-11T17:42:47.619Z,84.91
2022-12-11T17:45:52.702Z,85.51
2022-12-11T17:48:56.439Z,84.84
2022-12-11T17:51:59.396Z,86.30
2022-12-11T17:55:03.172Z,84.81
2022-12-11T17:58:06.223Z,84.44
2022-12-11T18:01:11.010Z,84.08
2022-12-11T18:04:15.419Z,84.35
2022-12-11T18:07:19.235Z,85.74
2022-12-11T18:10:23.283Z,82.85
2022-12-11T18:13:26.459Z,83.10
2022-12-11T18:16:33.987Z,82.13
2022-12-11T18:19:41.415Z,81.56
2022-12-11T18:22:47.304Z,83.53
2022-12-11T18:25:50.495Z,83.60
2022-12-11T18:28:53.973Z,84.14
2022-12-11T18:31:56.831Z,84.42
2022-12-11T18:34:59.851Z,83.68
2022-12-11T18:38:02.730Z,84.14
2022-12-11T18:41:07.871Z,85.14
2022-12-11T18:44:10.846Z,85.01
2022-12-11T18:47:13.675Z,86.12
2022-12-11T18:50:16.699Z,85.55
2022-12-11T18:53:20.103Z,86.23
2022-12-11T18:56:23.428Z,87.63
2022-12-11T18:59:27.593Z,86.22
2022-12-11T19:02:30.358Z,85.45
2022-12-11T19:05:34.075Z,84.56
2022-12-11T19:08:38.107Z,84.93
2022-12-11T19:11:41.851Z,86.27
2022-12-11T19:14:44.779Z,84.73
2022-12-11T19:17:47.664Z,85.05
2022-12-11T19:20:57.662Z,85.53
2022-12-11T19:24:08.389Z,84.43
2022-12-11T19:27:13.615Z,85.51
2022-12-11T19:30:17.273Z,85.76
2022-12-11T19:33:21.976Z,86.68
2022-12-11T19:36:26.831Z,86.89
2022-12-11T19:39:29.350Z,87.44
2022-12-11T19:42:32.520Z,87.04
2022-12-11T19:45:35.791Z,87.95
2022-12-11T19:48:41.511Z,88.30
2022-12-11T19:51:44.973Z,88.32
2022-12-11T19:54:47.816Z,88.26
2022-12-11T19:57:50.775Z,89.87
2022-12-11T20:00:54.304Z,89.31
2022-12-11T20:04:00.092Z,90.25
2022-12-11T20:07:03.270Z,90.47
2022-12-11T20:10:07.225Z,90.97
2022-12-11T20:13:10.192Z,90.38
2022-12-11T20:16:14.417Z,89.95
2022-12-11T20:19:17.411Z,90.24
2022-12-11T20:22:20.099Z,90.81
2022-12-11T20:25:24.257Z,90.48
2022-12-11T20:28:26.879Z,90.84
2022-12-11T20:31:29.980Z,91.02
2022-12-11T20:34:32.819Z,91.16
2022-12-11T20:37:36.175Z,91.53
2022-12-11T20:40:46.105Z,91.63
2022-12-11T20:43:53.404Z,91.16
2022-12-11T20:46:56.136Z,90.86
2022-12-11T20:49:58.931Z,91.19
2022-12-11T20:53:01.737Z,91.70
2022-12-11T20:56:17.414Z,91.83
2022-12-11T20:59:20.322Z,91.90
2022-12-11T21:02:23.384Z,92.18
2022-12-11T21:05:26.168Z,92.35
2022-12-11T21:08:29.301Z,92.63
2022-12-11T21:11:32.327Z,92.88
2022-12-11T21:14:35.138Z,93.38
2022-12-11T21:17:38.679Z,93.25
2022-12-11T21:20:41.663Z,92.47
2022-12-11T21:23:45.082Z,92.73
2022-12-11T21:26:48.831Z,93.00
2022-12-11T21:29:51.712Z,92.74
2022-12-11T21:32:54.491Z,92.52
2022-12-11T21:35:59.122Z,92.82
2022-12-11T21:39:02.639Z,92.52
2022-12-11T21:42:05.223Z,92.61
2022-12-11T21:45:59.373Z,93.03
2022-12-11T21:48:33.689Z,92.81
2022-12-11T21:51:42.525Z,92.71
2022-12-11T21:54:49.267Z,92.71
2022-12-11T21:57:54.570Z,93.08
2022-12-11T22:00:57.738Z,93.32
2022-12-11T22:04:00.787Z,93.56
2022-12-11T22:07:03.984Z,93.16
2022-12-11T22:10:07.670Z,93.16
2022-12-11T22:13:10.332Z,92.05
2022-12-11T22:16:13.157Z,91.99
2022-12-11T22:19:16.270Z,92.60
2022-12-11T22:22:19.731Z,92.32
2022-12-11T22:25:22.421Z,92.93
2022-12-11T22:28:25.318Z,92.47
2022-12-11T22:31:28.262Z,92.97
2022-12-11T22:34:31.048Z,93.77
2022-12-11T22:37:33.562Z,94.15
2022-12-11T22:40:41.970Z,94.01
2022-12-11T22:43:44.505Z,94.11
2022-12-11T22:46:50.265Z,94.05
2022-12-11T22:49:53.329Z,93.84
2022-12-11T22:52:55.978Z,93.90
2022-12-11T22:55:58.647Z,93.90
2022-12-11T22:59:01.366Z,94.19
2022-12-11T23:02:04.426Z,94.59
2022-12-11T23:05:07.986Z,94.01
2022-12-11T23:08:10.528Z,94.33
2022-12-11T23:11:24.275Z,93.96
2022-12-11T23:14:27.353Z,93.67
2022-12-11T23:17:30.174Z,93.88
2022-12-11T23:20:36.673Z,94.20
2022-12-11T23:23:39.592Z,94.50
2022-12-11T23:26:42.584Z,94.22
2022-12-11T23:29:46.089Z,93.78
2022-12-11T23:32:48.900Z,93.62
2022-12-11T23:35:51.934Z,93.87
2022-12-11T23:38:55.947Z,93.57
2022-12-11T23:41:58.823Z,93.50
2022-12-11T23:45:01.500Z,93.80
2022-12-11T23:48:04.785Z,93.24
2022-12-11T23:51:07.889Z,93.04
2022-12-11T23:54:10.617Z,93.32
2022-12-11T23:57:13.227Z,92.91
